createdAt,value
2022-11-03T00:00:00.443Z,0.00
2022-11-03T00:01:00.444Z,0.00
2022-11-03T00:02:00.621Z,0.00
2022-11-03T00:03:00.569Z,0.00
2022-11-03T00:04:00.433Z,0.00
2022-11-03T00:05:00.436Z,0.00
2022-11-03T00:06:00.430Z,0.00
2022-11-03T00:07:00.428Z,0.00
2022-11-03T00:08:00.429Z,0.00
2022-11-03T00:09:00.421Z,0.00
2022-11-03T00:10:00.419Z,0.00
2022-11-03T00:11:00.428Z,0.00
2022-11-03T00:12:00.415Z,0.00
2022-11-03T00:13:00.416Z,0.00
2022-11-03T00:14:00.408Z,0.00
2022-11-03T00:15:00.407Z,0.00
2022-11-03T00:16:00.409Z,0.00
2022-11-03T00:17:00.408Z,0.00
2022-11-03T00:18:00.418Z,0.00
2022-11-03T00:19:00.396Z,0.00
2022-11-03T00:20:00.397Z,0.00
2022-11-03T00:21:00.399Z,0.00
2022-11-03T00:22:00.388Z,0.00
2022-11-03T00:23:00.384Z,0.00
2022-11-03T00:24:00.384Z,0.00
2022-11-03T00:25:00.388Z,0.00
2022-11-03T00:26:00.377Z,0.00
2022-11-03T00:27:00.388Z,0.00
2022-11-03T00:28:00.451Z,0.00
2022-11-03T00:29:00.373Z,0.00
2022-11-03T00:30:00.387Z,0.00
2022-11-03T00:31:00.366Z,0.00
2022-11-03T00:32:00.366Z,0.00
2022-11-03T00:33:00.363Z,0.00
2022-11-03T00:34:00.380Z,0.00
2022-11-03T00:35:00.355Z,0.00
2022-11-03T00:36:00.353Z,0.00
2022-11-03T00:37:00.363Z,0.00
2022-11-03T00:38:03.555Z,0.00
2022-11-03T00:39:00.364Z,0.00
2022-11-03T00:40:00.365Z,0.00
2022-11-03T00:41:00.341Z,0.00
2022-11-03T00:42:00.343Z,0.00
2022-11-03T00:43:00.338Z,0.00
2022-11-03T00:44:00.336Z,0.00
2022-11-03T00:45:00.335Z,0.00
2022-11-03T00:46:00.339Z,0.00
2022-11-03T00:47:00.336Z,0.00
2022-11-03T00:48:00.337Z,0.00
2022-11-03T00:49:00.323Z,0.00
2022-11-03T00:50:00.341Z,0.00
2022-11-03T00:51:00.315Z,0.00
2022-11-03T00:52:00.315Z,0.00
2022-11-03T00:53:00.319Z,0.00
2022-11-03T00:54:00.316Z,0.00
2022-11-03T00:55:00.308Z,0.00
2022-11-03T00:56:00.315Z,0.00
2022-11-03T00:57:00.312Z,0.00
2022-11-03T00:58:00.308Z,0.00
2022-11-03T00:59:00.296Z,0.00
2022-11-03T01:00:00.302Z,0.00
2022-11-03T01:01:00.353Z,0.00
2022-11-03T01:02:00.404Z,0.00
2022-11-03T01:03:00.290Z,0.00
2022-11-03T01:04:00.286Z,0.00
2022-11-03T01:05:00.301Z,0.00
2022-11-03T01:06:00.298Z,0.00
2022-11-03T01:07:00.278Z,0.00
2022-11-03T01:09:00.271Z,0.00
2022-11-03T01:10:00.271Z,0.00
2022-11-03T01:11:00.266Z,0.00
2022-11-03T01:12:00.269Z,0.00
2022-11-03T01:13:00.267Z,0.00
2022-11-03T01:14:00.263Z,0.00
2022-11-03T01:15:00.261Z,0.00
2022-11-03T01:16:00.261Z,0.00
2022-11-03T01:17:00.400Z,0.00
2022-11-03T01:18:00.251Z,0.00
2022-11-03T01:19:00.250Z,0.00
2022-11-03T01:20:00.244Z,0.00
2022-11-03T01:21:00.248Z,0.00
2022-11-03T01:22:00.315Z,0.00
2022-11-03T01:23:00.286Z,0.00
2022-11-03T01:24:00.288Z,0.00
2022-11-03T01:25:00.287Z,0.00
2022-11-03T01:26:00.240Z,0.00
2022-11-03T01:27:00.227Z,0.00
2022-11-03T01:28:00.348Z,0.00
2022-11-03T01:29:00.222Z,0.00
2022-11-03T01:30:00.220Z,0.00
2022-11-03T01:31:00.218Z,0.00
2022-11-03T01:32:00.214Z,0.00
2022-11-03T01:33:00.211Z,0.00
2022-11-03T01:34:00.211Z,0.00
2022-11-03T01:35:00.204Z,0.00
2022-11-03T01:36:00.206Z,0.00
2022-11-03T01:37:00.207Z,0.00
2022-11-03T01:38:00.227Z,0.00
2022-11-03T01:39:00.196Z,0.00
2022-11-03T01:40:00.193Z,0.00
2022-11-03T01:41:00.192Z,0.00
2022-11-03T01:42:00.192Z,0.00
2022-11-03T01:43:00.189Z,0.00
2022-11-03T01:44:00.186Z,0.00
2022-11-03T01:45:00.190Z,0.00
2022-11-03T01:46:00.181Z,0.00
2022-11-03T01:47:00.175Z,0.00
2022-11-03T01:48:00.338Z,0.00
2022-11-03T01:49:00.172Z,0.00
2022-11-03T01:50:00.170Z,0.00
2022-11-03T01:51:00.168Z,0.00
2022-11-03T01:52:00.161Z,0.00
2022-11-03T01:53:00.159Z,0.00
2022-11-03T01:54:00.181Z,0.00
2022-11-03T01:55:00.153Z,0.00
2022-11-03T01:56:00.153Z,0.00
2022-11-03T01:57:00.148Z,0.00
2022-11-03T01:58:00.153Z,0.00
2022-11-03T01:59:00.145Z,0.00
2022-11-03T02:00:00.151Z,0.00
2022-11-03T02:01:00.207Z,0.00
2022-11-03T02:02:00.390Z,0.00
2022-11-03T02:03:00.134Z,0.00
2022-11-03T02:04:00.133Z,0.00
2022-11-03T02:05:00.140Z,0.00
2022-11-03T02:06:00.128Z,0.00
2022-11-03T02:07:00.124Z,0.00
2022-11-03T02:08:00.223Z,0.00
2022-11-03T02:09:00.120Z,0.00
2022-11-03T02:10:00.248Z,0.00
2022-11-03T02:11:00.112Z,0.00
2022-11-03T02:12:00.113Z,0.00
2022-11-03T02:13:00.113Z,0.00
2022-11-03T02:14:00.117Z,0.00
2022-11-03T02:15:00.112Z,0.00
2022-11-03T02:16:00.101Z,0.00
2022-11-03T02:17:00.106Z,0.00
2022-11-03T02:18:00.101Z,0.00
2022-11-03T02:19:00.101Z,0.00
2022-11-03T02:20:00.138Z,0.00
2022-11-03T02:21:00.092Z,0.00
2022-11-03T02:22:00.096Z,0.00
2022-11-03T02:23:00.097Z,0.00
2022-11-03T02:24:00.092Z,0.00
2022-11-03T02:25:00.094Z,0.00
2022-11-03T02:26:00.095Z,0.00
2022-11-03T02:27:00.080Z,0.00
2022-11-03T02:28:00.083Z,0.00
2022-11-03T02:29:00.118Z,0.00
2022-11-03T02:30:00.081Z,0.00
2022-11-03T02:31:00.067Z,0.00
2022-11-03T02:32:00.070Z,0.00
2022-11-03T02:33:00.061Z,0.00
2022-11-03T02:34:00.059Z,0.00
2022-11-03T02:35:00.052Z,0.00
2022-11-03T02:36:00.066Z,0.00
2022-11-03T02:37:00.052Z,0.00
2022-11-03T02:38:00.047Z,0.00
2022-11-03T02:39:00.044Z,0.00
2022-11-03T02:40:00.040Z,0.00
2022-11-03T02:41:00.040Z,0.00
2022-11-03T02:42:00.054Z,0.00
2022-11-03T02:43:00.033Z,0.00
2022-11-03T02:44:00.030Z,0.00
2022-11-03T02:45:00.029Z,0.00
2022-11-03T02:46:00.029Z,0.00
2022-11-03T02:47:00.023Z,0.00
2022-11-03T02:48:00.028Z,0.00
2022-11-03T02:49:00.018Z,0.00
2022-11-03T02:50:00.025Z,0.00
2022-11-03T02:51:00.018Z,0.00
2022-11-03T02:52:00.012Z,0.00
2022-11-03T02:53:00.011Z,0.00
2022-11-03T02:54:00.005Z,0.00
2022-11-03T02:55:00.000Z,0.00
2022-11-03T02:55:59.999Z,0.00
2022-11-03T02:56:59.998Z,0.00
2022-11-03T02:58:00.015Z,0.00
2022-11-03T02:58:59.994Z,0.00
2022-11-03T02:59:59.990Z,0.00
2022-11-03T03:01:00.129Z,0.00
2022-11-03T03:02:00.149Z,0.00
2022-11-03T03:02:59.982Z,0.00
2022-11-03T03:03:59.982Z,0.00
2022-11-03T03:04:59.980Z,0.00
2022-11-03T03:05:59.972Z,0.00
2022-11-03T03:06:59.971Z,0.00
2022-11-03T03:07:59.967Z,0.00
2022-11-03T03:08:59.969Z,0.00
2022-11-03T03:09:59.968Z,0.00
2022-11-03T03:10:59.961Z,0.00
2022-11-03T03:11:59.958Z,0.00
2022-11-03T03:12:59.954Z,0.00
2022-11-03T03:13:59.973Z,0.00
2022-11-03T03:14:59.954Z,0.00
2022-11-03T03:15:59.947Z,0.00
2022-11-03T03:16:59.948Z,0.00
2022-11-03T03:17:59.953Z,0.00
2022-11-03T03:18:59.940Z,0.00
2022-11-03T03:19:59.937Z,0.00
2022-11-03T03:20:59.935Z,0.00
2022-11-03T03:21:59.936Z,0.00
2022-11-03T03:22:59.929Z,0.00
2022-11-03T03:23:59.929Z,0.00
2022-11-03T03:24:59.926Z,0.00
2022-11-03T03:25:59.925Z,0.00
2022-11-03T03:26:59.920Z,0.00
2022-11-03T03:27:59.925Z,0.00
2022-11-03T03:28:59.919Z,0.00
2022-11-03T03:29:59.932Z,0.00
2022-11-03T03:30:59.912Z,0.00
2022-11-03T03:31:59.911Z,0.00
2022-11-03T03:32:59.911Z,0.00
2022-11-03T03:34:04.873Z,0.00
2022-11-03T03:34:59.899Z,0.00
2022-11-03T03:35:59.894Z,0.00
2022-11-03T03:36:59.891Z,0.00
2022-11-03T03:37:59.889Z,0.00
2022-11-03T03:38:59.889Z,0.00
2022-11-03T03:39:59.890Z,0.00
2022-11-03T03:40:59.893Z,0.00
2022-11-03T03:41:59.880Z,0.00
2022-11-03T03:42:59.881Z,0.00
2022-11-03T03:43:59.874Z,0.00
2022-11-03T03:44:59.876Z,0.00
2022-11-03T03:45:59.891Z,0.00
2022-11-03T03:46:59.871Z,0.00
2022-11-03T03:47:59.866Z,0.00
2022-11-03T03:48:59.863Z,0.00
2022-11-03T03:49:59.873Z,0.00
2022-11-03T03:50:59.856Z,0.00
2022-11-03T03:51:59.854Z,0.00
2022-11-03T03:52:59.854Z,0.00
2022-11-03T03:53:59.850Z,0.00
2022-11-03T03:54:59.849Z,0.00
2022-11-03T03:55:59.843Z,0.00
2022-11-03T03:56:59.844Z,0.00
2022-11-03T03:58:00.567Z,0.00
2022-11-03T03:58:59.864Z,0.00
2022-11-03T03:59:59.846Z,0.00
2022-11-03T04:00:59.872Z,0.00
2022-11-03T04:02:00.045Z,0.00
2022-11-03T04:02:59.827Z,0.00
2022-11-03T04:03:59.826Z,0.00
2022-11-03T04:04:59.826Z,0.00
2022-11-03T04:05:59.820Z,0.00
2022-11-03T04:06:59.821Z,0.00
2022-11-03T04:07:59.815Z,0.00
2022-11-03T04:08:59.964Z,0.00
2022-11-03T04:09:59.806Z,0.00
2022-11-03T04:10:59.804Z,0.00
2022-11-03T04:11:59.804Z,0.00
2022-11-03T04:12:59.800Z,0.00
2022-11-03T04:13:59.799Z,0.00
2022-11-03T04:14:59.795Z,0.00
2022-11-03T04:15:59.792Z,0.00
2022-11-03T04:16:59.792Z,0.00
2022-11-03T04:17:59.811Z,0.00
2022-11-03T04:18:59.795Z,0.00
2022-11-03T04:19:59.787Z,0.00
2022-11-03T04:20:59.779Z,0.00
2022-11-03T04:21:59.775Z,0.00
2022-11-03T04:22:59.775Z,0.00
2022-11-03T04:23:59.773Z,0.00
2022-11-03T04:24:59.772Z,0.00
2022-11-03T04:25:59.868Z,0.00
2022-11-03T04:26:59.767Z,0.00
2022-11-03T04:27:59.763Z,0.00
2022-11-03T04:28:59.758Z,0.00
2022-11-03T04:29:59.756Z,0.00
2022-11-03T04:30:59.811Z,0.00
2022-11-03T04:31:59.749Z,0.00
2022-11-03T04:32:59.749Z,0.00
2022-11-03T04:33:59.765Z,0.00
2022-11-03T04:34:59.745Z,0.00
2022-11-03T04:35:59.741Z,0.00
2022-11-03T04:36:59.738Z,0.00
2022-11-03T04:37:59.739Z,0.00
2022-11-03T04:38:59.730Z,0.00
2022-11-03T04:39:59.730Z,0.00
2022-11-03T04:40:59.733Z,0.00
2022-11-03T04:41:59.726Z,0.00
2022-11-03T04:42:59.723Z,0.00
2022-11-03T04:43:59.722Z,0.00
2022-11-03T04:44:59.720Z,0.00
2022-11-03T04:45:59.715Z,0.00
2022-11-03T04:46:59.711Z,0.00
2022-11-03T04:47:59.709Z,0.00
2022-11-03T04:48:59.707Z,0.00
2022-11-03T04:49:59.723Z,0.00
2022-11-03T04:50:59.706Z,0.00
2022-11-03T04:51:59.703Z,0.00
2022-11-03T04:52:59.696Z,0.00
2022-11-03T04:53:59.693Z,0.00
2022-11-03T04:54:59.694Z,0.00
2022-11-03T04:56:05.958Z,0.00
2022-11-03T04:56:59.693Z,0.00
2022-11-03T04:57:59.684Z,0.00
2022-11-03T04:58:59.679Z,0.00
2022-11-03T04:59:59.678Z,0.00
2022-11-03T05:00:59.739Z,0.00
2022-11-03T05:01:59.806Z,0.00
2022-11-03T05:02:59.670Z,0.00
2022-11-03T05:03:59.670Z,0.00
2022-11-03T05:04:59.663Z,0.00
2022-11-03T05:05:59.682Z,0.00
2022-11-03T05:06:59.661Z,0.00
2022-11-03T05:07:59.656Z,0.00
2022-11-03T05:08:59.657Z,0.00
2022-11-03T05:09:59.650Z,0.00
2022-11-03T05:10:59.653Z,0.00
2022-11-03T05:11:59.652Z,0.00
2022-11-03T05:12:59.647Z,0.00
2022-11-03T05:13:59.645Z,0.00
2022-11-03T05:14:59.640Z,0.00
2022-11-03T05:15:59.647Z,0.00
2022-11-03T05:18:43.380Z,0.00
2022-11-03T05:19:43.379Z,0.00
2022-11-03T05:20:43.382Z,0.00
2022-11-03T05:21:43.392Z,0.00
2022-11-03T05:22:43.368Z,0.00
2022-11-03T05:23:43.367Z,0.00
2022-11-03T05:24:43.367Z,0.00
2022-11-03T05:25:43.367Z,0.00
2022-11-03T05:26:43.365Z,0.00
2022-11-03T05:27:43.359Z,0.00
2022-11-03T05:28:43.355Z,0.00
2022-11-03T05:29:43.359Z,0.00
2022-11-03T05:30:43.350Z,0.00
2022-11-03T05:31:43.351Z,0.00
2022-11-03T05:32:43.342Z,0.00
2022-11-03T05:33:43.338Z,0.00
2022-11-03T05:34:43.341Z,0.00
2022-11-03T05:35:43.334Z,0.00
2022-11-03T05:36:43.347Z,0.00
2022-11-03T05:37:43.350Z,0.00
2022-11-03T05:38:43.350Z,0.00
2022-11-03T05:39:43.340Z,0.00
2022-11-03T05:40:43.340Z,0.00
2022-11-03T05:41:43.319Z,0.00
2022-11-03T05:42:43.338Z,0.00
2022-11-03T05:43:43.313Z,0.00
2022-11-03T05:44:43.311Z,0.00
2022-11-03T05:45:43.310Z,0.00
2022-11-03T05:46:43.305Z,0.00
2022-11-03T05:47:43.305Z,0.00
2022-11-03T05:48:43.304Z,0.00
2022-11-03T05:49:43.297Z,0.00
2022-11-03T05:50:43.298Z,0.00
2022-11-03T05:51:43.293Z,0.00
2022-11-03T05:52:43.291Z,0.00
2022-11-03T05:53:43.380Z,0.00
2022-11-03T05:54:43.285Z,0.00
2022-11-03T05:55:43.282Z,0.00
2022-11-03T05:56:43.278Z,0.00
2022-11-03T05:57:43.290Z,0.00
2022-11-03T05:58:43.279Z,0.00
2022-11-03T05:59:43.271Z,0.00
2022-11-03T06:00:48.404Z,0.00
2022-11-03T06:01:43.396Z,0.00
2022-11-03T06:02:43.358Z,0.00
2022-11-03T06:03:43.262Z,0.00
2022-11-03T06:04:43.261Z,0.00
2022-11-03T06:05:43.256Z,0.00
2022-11-03T06:06:43.253Z,0.00
2022-11-03T06:07:43.251Z,0.00
2022-11-03T06:08:45.961Z,0.00
2022-11-03T06:09:43.268Z,0.00
2022-11-03T06:10:43.246Z,0.00
2022-11-03T06:11:43.242Z,4.00
2022-11-03T06:12:43.257Z,0.00
2022-11-03T06:13:43.237Z,0.00
2022-11-03T06:14:43.234Z,0.00
2022-11-03T06:15:43.230Z,4.00
2022-11-03T06:16:43.228Z,4.00
2022-11-03T06:17:43.222Z,4.00
2022-11-03T06:18:43.221Z,0.00
2022-11-03T06:19:43.218Z,4.00
2022-11-03T06:20:43.216Z,4.00
2022-11-03T06:21:44.658Z,4.00
2022-11-03T06:22:43.221Z,4.00
2022-11-03T06:23:43.208Z,4.00
2022-11-03T06:24:43.205Z,4.00
2022-11-03T06:25:43.220Z,4.00
2022-11-03T06:26:43.199Z,8.00
2022-11-03T06:27:43.198Z,8.00
2022-11-03T06:28:43.196Z,8.00
2022-11-03T06:29:43.207Z,4.00
2022-11-03T06:31:43.197Z,12.00
2022-11-03T06:32:43.209Z,8.00
2022-11-03T06:33:43.182Z,12.00
2022-11-03T06:34:43.180Z,12.00
2022-11-03T06:35:43.204Z,12.00
2022-11-03T06:36:43.184Z,12.00
2022-11-03T06:37:43.175Z,16.00
2022-11-03T06:38:43.169Z,16.00
2022-11-03T06:39:43.166Z,20.00
2022-11-03T06:40:43.167Z,20.00
2022-11-03T06:41:43.178Z,16.00
2022-11-03T06:42:43.162Z,16.00
2022-11-03T06:43:43.154Z,20.00
2022-11-03T06:44:43.153Z,20.00
2022-11-03T06:45:43.157Z,24.00
2022-11-03T06:46:43.150Z,24.00
2022-11-03T06:47:43.153Z,20.00
2022-11-03T06:48:43.142Z,20.00
2022-11-03T06:49:43.141Z,20.00
2022-11-03T06:50:44.974Z,20.00
2022-11-03T06:51:43.134Z,28.00
2022-11-03T06:52:43.203Z,28.00
2022-11-03T06:53:43.131Z,28.00
2022-11-03T06:54:43.131Z,28.00
2022-11-03T06:55:43.128Z,28.00
2022-11-03T06:56:43.123Z,28.00
2022-11-03T06:57:43.142Z,32.00
2022-11-03T06:58:43.116Z,28.00
2022-11-03T06:59:43.116Z,32.00
2022-11-03T07:00:48.902Z,32.00
2022-11-03T07:01:43.271Z,36.00
2022-11-03T07:02:43.144Z,36.00
2022-11-03T07:03:43.101Z,36.00
2022-11-03T07:04:43.104Z,40.00
2022-11-03T07:05:43.097Z,36.00
2022-11-03T07:06:43.101Z,40.00
2022-11-03T07:07:43.092Z,40.00
2022-11-03T07:08:43.091Z,44.00
2022-11-03T07:09:43.089Z,48.00
2022-11-03T07:10:43.087Z,56.00
2022-11-03T07:11:43.087Z,68.00
2022-11-03T07:12:43.094Z,76.00
2022-11-03T07:13:43.112Z,80.00
2022-11-03T07:14:43.078Z,84.00
2022-11-03T07:15:43.074Z,104.00
2022-11-03T07:16:43.075Z,104.00
2022-11-03T07:17:43.068Z,104.00
2022-11-03T07:18:43.078Z,108.00
2022-11-03T07:19:43.065Z,112.00
2022-11-03T07:20:43.064Z,104.00
2022-11-03T07:21:43.057Z,100.00
2022-11-03T07:22:43.056Z,96.00
2022-11-03T07:23:46.256Z,96.00
2022-11-03T07:24:43.056Z,104.00
2022-11-03T07:25:43.048Z,108.00
2022-11-03T07:26:43.051Z,120.00
2022-11-03T07:27:43.044Z,128.00
2022-11-03T07:28:43.044Z,132.00
2022-11-03T07:29:43.064Z,152.00
2022-11-03T07:30:43.037Z,160.00
2022-11-03T07:31:43.033Z,184.00
2022-11-03T07:32:43.032Z,192.00
2022-11-03T07:33:43.029Z,200.00
2022-11-03T07:34:43.027Z,208.00
2022-11-03T07:36:13.186Z,232.00
2022-11-03T07:36:43.019Z,228.00
2022-11-03T07:37:43.016Z,248.00
2022-11-03T07:38:43.023Z,260.00
2022-11-03T07:39:43.015Z,284.00
2022-11-03T07:40:43.014Z,288.00
2022-11-03T07:41:43.006Z,256.00
2022-11-03T07:42:43.009Z,284.00
2022-11-03T07:43:43.004Z,280.00
2022-11-03T07:44:43.000Z,296.00
2022-11-03T07:45:43.015Z,308.00
2022-11-03T07:46:42.998Z,344.00
2022-11-03T07:47:42.991Z,328.00
2022-11-03T07:48:42.993Z,284.00
2022-11-03T07:49:42.988Z,276.00
2022-11-03T07:50:42.990Z,300.00
2022-11-03T07:51:42.985Z,280.00
2022-11-03T07:52:42.979Z,264.00
2022-11-03T07:53:42.977Z,248.00
2022-11-03T07:54:42.977Z,248.00
2022-11-03T07:55:43.020Z,268.00
2022-11-03T07:56:42.972Z,268.00
2022-11-03T07:57:42.969Z,268.00
2022-11-03T07:58:42.972Z,268.00
2022-11-03T07:59:42.964Z,312.00
2022-11-03T08:00:42.960Z,320.00
2022-11-03T08:01:43.190Z,308.00
2022-11-03T08:02:43.066Z,336.00
2022-11-03T08:03:42.953Z,328.00
2022-11-03T08:04:42.951Z,364.00
2022-11-03T08:05:42.948Z,360.00
2022-11-03T08:06:42.945Z,324.00
2022-11-03T08:07:42.950Z,324.00
2022-11-03T08:08:42.939Z,296.00
2022-11-03T08:09:42.938Z,284.00
2022-11-03T08:10:42.936Z,268.00
2022-11-03T08:11:42.935Z,236.00
2022-11-03T08:12:42.937Z,220.00
2022-11-03T08:13:42.928Z,232.00
2022-11-03T08:14:42.932Z,212.00
2022-11-03T08:15:42.924Z,200.00
2022-11-03T08:16:42.931Z,200.00
2022-11-03T08:17:42.940Z,200.00
2022-11-03T08:18:42.918Z,192.00
2022-11-03T08:19:42.916Z,176.00
2022-11-03T08:20:42.914Z,176.00
2022-11-03T08:21:42.911Z,172.00
2022-11-03T08:22:49.836Z,176.00
2022-11-03T08:23:47.124Z,180.00
2022-11-03T08:24:42.914Z,180.00
2022-11-03T08:25:42.900Z,180.00
2022-11-03T08:26:42.902Z,184.00
2022-11-03T08:27:42.895Z,204.00
2022-11-03T08:28:42.900Z,212.00
2022-11-03T08:29:42.894Z,208.00
2022-11-03T08:30:42.889Z,208.00
2022-11-03T08:31:42.886Z,220.00
2022-11-03T08:32:42.886Z,220.00
2022-11-03T08:33:42.896Z,216.00
2022-11-03T08:34:42.885Z,236.00
2022-11-03T08:35:42.877Z,252.00
2022-11-03T08:36:42.873Z,260.00
2022-11-03T08:37:42.875Z,268.00
2022-11-03T08:38:42.873Z,288.00
2022-11-03T08:39:42.866Z,284.00
2022-11-03T08:40:42.864Z,308.00
2022-11-03T08:41:42.869Z,336.00
2022-11-03T08:42:42.877Z,320.00
2022-11-03T08:43:42.858Z,324.00
2022-11-03T08:44:42.860Z,324.00
2022-11-03T08:45:42.853Z,324.00
2022-11-03T08:46:42.851Z,328.00
2022-11-03T08:47:42.846Z,316.00
2022-11-03T08:48:42.843Z,320.00
2022-11-03T08:49:42.874Z,316.00
2022-11-03T08:50:42.845Z,304.00
2022-11-03T08:51:44.573Z,256.00
2022-11-03T08:52:42.841Z,288.00
2022-11-03T08:53:43.078Z,280.00
2022-11-03T08:54:42.873Z,264.00
2022-11-03T08:55:42.830Z,284.00
2022-11-03T08:56:42.830Z,292.00
2022-11-03T08:57:42.826Z,304.00
2022-11-03T08:58:42.824Z,324.00
2022-11-03T08:59:42.818Z,320.00
2022-11-03T09:00:42.817Z,324.00
2022-11-03T09:01:42.905Z,320.00
2022-11-03T09:02:42.856Z,328.00
2022-11-03T09:03:42.982Z,328.00
2022-11-03T09:04:42.809Z,328.00
2022-11-03T09:05:42.827Z,332.00
2022-11-03T09:06:42.803Z,328.00
2022-11-03T09:10:43.045Z,364.00
2022-11-03T09:11:42.791Z,372.00
2022-11-03T09:12:42.787Z,364.00
2022-11-03T09:13:42.787Z,364.00
2022-11-03T09:14:42.787Z,384.00
2022-11-03T09:15:42.782Z,404.00
2022-11-03T09:16:42.781Z,368.00
2022-11-03T09:17:44.797Z,348.00
2022-11-03T09:18:42.779Z,352.00
2022-11-03T09:19:42.774Z,328.00
2022-11-03T09:20:42.770Z,336.00
2022-11-03T09:21:42.801Z,352.00
2022-11-03T09:22:42.771Z,360.00
2022-11-03T09:23:42.770Z,360.00
2022-11-03T09:24:42.763Z,372.00
2022-11-03T09:25:42.762Z,368.00
2022-11-03T09:26:42.758Z,332.00
2022-11-03T09:27:42.756Z,324.00
2022-11-03T09:28:42.758Z,312.00
2022-11-03T09:30:06.983Z,312.00
2022-11-03T09:30:42.755Z,324.00
2022-11-03T09:31:42.745Z,308.00
2022-11-03T09:32:42.751Z,312.00
2022-11-03T09:33:42.745Z,296.00
2022-11-03T09:34:42.770Z,304.00
2022-11-03T09:35:42.736Z,296.00
2022-11-03T09:36:42.735Z,300.00
2022-11-03T09:37:42.748Z,300.00
2022-11-03T09:38:42.731Z,296.00
2022-11-03T09:39:42.733Z,280.00
2022-11-03T09:40:42.809Z,292.00
2022-11-03T09:41:57.132Z,284.00
2022-11-03T09:42:42.730Z,292.00
2022-11-03T09:43:42.727Z,308.00
2022-11-03T09:44:42.717Z,300.00
2022-11-03T09:45:42.717Z,332.00
2022-11-03T09:46:42.713Z,300.00
2022-11-03T09:47:42.713Z,320.00
2022-11-03T09:48:42.713Z,316.00
2022-11-03T09:49:42.706Z,304.00
2022-11-03T09:50:42.705Z,304.00
2022-11-03T09:51:42.704Z,292.00
2022-11-03T09:52:45.112Z,284.00
2022-11-03T09:53:42.744Z,228.00
2022-11-03T09:54:42.696Z,228.00
2022-11-03T09:55:42.694Z,224.00
2022-11-03T09:56:42.688Z,228.00
2022-11-03T09:57:42.689Z,228.00
2022-11-03T09:58:42.685Z,240.00
2022-11-03T09:59:42.683Z,240.00
2022-11-03T10:00:42.796Z,252.00
2022-11-03T10:01:42.865Z,308.00
2022-11-03T10:02:42.676Z,300.00
2022-11-03T10:03:42.677Z,284.00
2022-11-03T10:04:42.671Z,288.00
2022-11-03T10:05:42.671Z,284.00
2022-11-03T10:06:42.667Z,276.00
2022-11-03T10:07:42.721Z,284.00
2022-11-03T10:08:42.662Z,288.00
2022-11-03T10:09:42.679Z,252.00
2022-11-03T10:10:42.664Z,264.00
2022-11-03T10:11:42.665Z,256.00
2022-11-03T10:12:42.652Z,260.00
2022-11-03T10:13:42.654Z,272.00
2022-11-03T10:14:42.658Z,272.00
2022-11-03T10:15:42.658Z,268.00
2022-11-03T10:16:42.649Z,276.00
2022-11-03T10:17:42.647Z,276.00
2022-11-03T10:18:42.652Z,280.00
2022-11-03T10:19:42.641Z,272.00
2022-11-03T10:20:42.634Z,288.00
2022-11-03T10:21:42.709Z,316.00
2022-11-03T10:22:42.644Z,328.00
2022-11-03T10:23:42.640Z,332.00
2022-11-03T10:24:42.627Z,328.00
2022-11-03T10:25:42.647Z,316.00
2022-11-03T10:26:42.624Z,304.00
2022-11-03T10:27:42.626Z,300.00
2022-11-03T10:28:42.620Z,316.00
2022-11-03T10:29:45.385Z,312.00
2022-11-03T10:30:58.130Z,304.00
2022-11-03T10:31:42.615Z,276.00
2022-11-03T10:32:42.610Z,308.00
2022-11-03T10:33:42.609Z,296.00
2022-11-03T10:34:42.605Z,280.00
2022-11-03T10:35:42.604Z,268.00
2022-11-03T10:36:45.581Z,272.00
2022-11-03T10:37:42.603Z,288.00
2022-11-03T10:38:42.598Z,284.00
2022-11-03T10:39:42.599Z,284.00
2022-11-03T10:40:47.767Z,272.00
2022-11-03T10:41:42.614Z,276.00
2022-11-03T10:42:42.592Z,272.00
2022-11-03T10:43:42.595Z,280.00
2022-11-03T10:44:42.586Z,280.00
2022-11-03T10:45:42.936Z,276.00
2022-11-03T10:46:50.520Z,272.00
2022-11-03T10:47:42.584Z,272.00
2022-11-03T10:48:42.578Z,264.00
2022-11-03T10:49:44.003Z,272.00
2022-11-03T10:50:42.579Z,268.00
2022-11-03T10:51:42.572Z,284.00
2022-11-03T10:52:42.570Z,292.00
2022-11-03T10:53:42.571Z,300.00
2022-11-03T10:54:42.579Z,304.00
2022-11-03T10:55:42.565Z,324.00
2022-11-03T10:56:42.560Z,316.00
2022-11-03T10:57:42.581Z,316.00
2022-11-03T10:58:42.562Z,316.00
2022-11-03T10:59:42.560Z,276.00
2022-11-03T11:00:42.662Z,292.00
2022-11-03T11:01:42.742Z,292.00
2022-11-03T11:02:42.668Z,280.00
2022-11-03T11:03:42.552Z,280.00
2022-11-03T11:04:42.643Z,296.00
2022-11-03T11:05:42.554Z,296.00
2022-11-03T11:06:42.548Z,292.00
2022-11-03T11:07:42.575Z,304.00
2022-11-03T11:08:42.538Z,316.00
2022-11-03T11:09:42.537Z,304.00
2022-11-03T11:10:42.533Z,300.00
2022-11-03T11:11:42.533Z,280.00
2022-11-03T11:12:42.529Z,276.00
2022-11-03T11:13:42.569Z,284.00
2022-11-03T11:14:42.526Z,288.00
2022-11-03T11:15:42.526Z,268.00
2022-11-03T11:16:42.521Z,264.00
2022-11-03T11:17:42.520Z,264.00
2022-11-03T11:18:42.523Z,252.00
2022-11-03T11:19:42.524Z,248.00
2022-11-03T11:20:42.524Z,252.00
2022-11-03T11:21:42.541Z,248.00
2022-11-03T11:22:42.510Z,256.00
2022-11-03T11:23:42.514Z,252.00
2022-11-03T11:24:42.507Z,244.00
2022-11-03T11:25:42.506Z,240.00
2022-11-03T11:26:42.507Z,240.00
2022-11-03T11:27:42.501Z,240.00
2022-11-03T11:28:42.499Z,252.00
2022-11-03T11:29:42.518Z,244.00
2022-11-03T11:30:42.497Z,236.00
2022-11-03T11:31:42.501Z,240.00
2022-11-03T11:32:42.496Z,256.00
2022-11-03T11:33:42.492Z,264.00
2022-11-03T11:34:42.487Z,284.00
2022-11-03T11:35:42.486Z,292.00
2022-11-03T11:36:42.485Z,312.00
2022-11-03T11:37:42.485Z,272.00
2022-11-03T11:38:42.488Z,308.00
2022-11-03T11:39:42.483Z,304.00
2022-11-03T11:40:42.475Z,308.00
2022-11-03T11:41:42.478Z,300.00
2022-11-03T11:42:42.475Z,296.00
2022-11-03T11:43:42.474Z,260.00
2022-11-03T11:44:42.469Z,244.00
2022-11-03T11:45:42.839Z,240.00
2022-11-03T11:46:42.476Z,228.00
2022-11-03T11:47:42.472Z,220.00
2022-11-03T11:48:42.461Z,208.00
2022-11-03T11:49:42.461Z,196.00
2022-11-03T11:50:42.457Z,212.00
2022-11-03T11:51:42.454Z,232.00
2022-11-03T11:52:42.453Z,224.00
2022-11-03T11:53:42.451Z,232.00
2022-11-03T11:54:42.448Z,208.00
2022-11-03T11:55:42.446Z,188.00
2022-11-03T11:56:42.455Z,160.00
2022-11-03T11:57:42.459Z,172.00
2022-11-03T11:58:42.671Z,172.00
2022-11-03T11:59:42.444Z,172.00
2022-11-03T12:00:42.446Z,180.00
2022-11-03T12:01:42.514Z,176.00
2022-11-03T12:02:42.445Z,168.00
2022-11-03T12:03:42.485Z,164.00
2022-11-03T12:04:42.439Z,168.00
2022-11-03T12:05:42.433Z,168.00
2022-11-03T12:06:42.453Z,152.00
2022-11-03T12:07:42.431Z,164.00
2022-11-03T12:08:42.422Z,172.00
2022-11-03T12:09:42.422Z,180.00
2022-11-03T12:10:42.417Z,180.00
2022-11-03T12:11:45.771Z,168.00
2022-11-03T12:12:42.412Z,168.00
2022-11-03T12:13:42.414Z,168.00
2022-11-03T12:14:42.416Z,144.00
2022-11-03T12:15:42.410Z,140.00
2022-11-03T12:16:42.405Z,136.00
2022-11-03T12:17:42.427Z,152.00
2022-11-03T12:18:47.709Z,160.00
2022-11-03T12:19:42.415Z,164.00
2022-11-03T12:20:42.397Z,168.00
2022-11-03T12:21:42.397Z,192.00
2022-11-03T12:22:42.394Z,208.00
2022-11-03T12:23:42.392Z,228.00
2022-11-03T12:24:42.388Z,220.00
2022-11-03T12:25:42.394Z,224.00
2022-11-03T12:26:42.385Z,216.00
2022-11-03T12:27:42.388Z,220.00
2022-11-03T12:28:42.382Z,228.00
2022-11-03T12:29:42.378Z,240.00
2022-11-03T12:30:42.386Z,228.00
2022-11-03T12:31:42.376Z,224.00
2022-11-03T12:32:42.374Z,244.00
2022-11-03T12:33:42.394Z,232.00
2022-11-03T12:34:42.374Z,220.00
2022-11-03T12:35:42.374Z,228.00
2022-11-03T12:36:42.365Z,220.00
2022-11-03T12:37:42.373Z,200.00
2022-11-03T12:38:42.361Z,180.00
2022-11-03T12:39:42.362Z,172.00
2022-11-03T12:40:42.357Z,168.00
2022-11-03T12:41:42.354Z,184.00
2022-11-03T12:42:42.361Z,184.00
2022-11-03T12:43:42.429Z,176.00
2022-11-03T12:44:43.872Z,172.00
2022-11-03T12:45:42.553Z,168.00
2022-11-03T12:46:42.348Z,164.00
2022-11-03T12:47:42.345Z,172.00
2022-11-03T12:48:42.348Z,188.00
2022-11-03T12:49:42.374Z,204.00
2022-11-03T12:50:42.342Z,224.00
2022-11-03T12:51:42.336Z,224.00
2022-11-03T12:52:42.341Z,196.00
2022-11-03T12:53:42.331Z,184.00
2022-11-03T12:54:42.507Z,176.00
2022-11-03T12:55:44.730Z,188.00
2022-11-03T12:56:42.325Z,176.00
2022-11-03T12:57:42.324Z,160.00
2022-11-03T12:58:42.322Z,176.00
2022-11-03T12:59:42.323Z,188.00
2022-11-03T13:00:45.131Z,148.00